Time;durP1;ratioP1;P1;durP2;ratioP2;P2;SDS_P1;SDS_P2;PMS_P1;PMS_P2;Temp;Humidity;BMP_temperature;BMP_pressure;BME280_temperature;BME280_humidity;BME280_pressure;Samples;Min_cycle;Max_cycle;Signal;HPM_P1;HPM_P2
2021/01/22 00:00:22;;;;;;;31.65;13.28;;;;;;;5.14;71.31;99035.44;1664227;84;26216;-63
2021/01/22 00:02:50;;;;;;;28.52;12.55;;;;;;;5.12;71.33;99029.34;1615656;85;26007;-63
2021/01/22 00:05:17;;;;;;;29.05;13.55;;;;;;;5.09;71.32;99017.53;1663551;84;25894;-64
2021/01/22 00:07:43;;;;;;;31.30;13.10;;;;;;;5.05;71.15;99026.58;1647413;85;25817;-64
2021/01/22 00:10:11;;;;;;;30.43;13.38;;;;;;;5.04;71.42;99023.99;1649561;85;28548;-64
2021/01/22 00:12:38;;;;;;;39.80;15.15;;;;;;;5.02;71.43;99033.82;1653087;85;25891;-63
2021/01/22 00:15:06;;;;;;;30.97;13.05;;;;;;;5.01;71.43;99026.79;1649843;85;25814;-63
2021/01/22 00:17:32;;;;;;;33.48;13.53;;;;;;;5.01;71.59;99026.33;1647671;85;25797;-64
2021/01/22 00:19:59;;;;;;;28.77;12.95;;;;;;;5.02;71.61;99022.73;1649338;85;25760;-64
2021/01/22 00:22:25;;;;;;;30.08;13.53;;;;;;;5.01;71.58;99018.83;1658917;84;27607;-64
2021/01/22 00:24:51;;;;;;;34.67;12.82;;;;;;;5.01;71.64;99016.17;1664890;84;25944;-63
2021/01/22 00:27:17;;;;;;;36.10;13.40;;;;;;;5.01;71.69;99018.36;1668503;84;25845;-64
2021/01/22 00:29:43;;;;;;;28.65;11.97;;;;;;;5.02;71.70;99025.86;1662994;84;25846;-64
2021/01/22 00:32:09;;;;;;;34.45;14.58;;;;;;;5.03;71.70;99024.92;1660710;84;25863;-63
2021/01/22 00:34:35;;;;;;;29.00;11.68;;;;;;;5.03;71.74;99023.13;1659434;84;28218;-64
2021/01/22 00:37:01;;;;;;;34.27;12.05;;;;;;;5.02;71.72;99013.91;1648255;85;25922;-64
2021/01/22 00:39:27;;;;;;;31.02;13.40;;;;;;;5.01;71.75;99008.20;1658830;84;25725;-64
2021/01/22 00:41:53;;;;;;;27.67;11.95;;;;;;;4.99;71.76;99003.43;1663157;84;26405;-64
2021/01/22 00:44:19;;;;;;;34.78;13.45;;;;;;;4.95;71.77;99005.84;1662024;84;26397;-64
2021/01/22 00:46:45;;;;;;;31.42;12.50;;;;;;;4.92;71.79;99002.00;1667316;83;27855;-63
2021/01/22 00:49:11;;;;;;;38.15;13.08;;;;;;;4.92;71.85;98987.39;1645654;85;26175;-64
2021/01/22 00:51:37;;;;;;;27.90;12.23;;;;;;;4.88;71.82;98999.48;1661578;84;25832;-64
2021/01/22 00:54:04;;;;;;;29.12;11.80;;;;;;;4.87;71.87;99011.50;1659749;84;25872;-64
2021/01/22 00:56:30;;;;;;;25.37;12.10;;;;;;;4.86;71.89;99006.66;1643521;85;25983;-64
2021/01/22 00:58:56;;;;;;;32.33;12.03;;;;;;;4.87;71.95;98996.90;1654788;84;28292;-64
2021/01/22 01:01:22;;;;;;;31.68;11.83;;;;;;;4.90;71.97;98990.13;1664168;84;26337;-65
2021/01/22 01:03:48;;;;;;;23.77;10.53;;;;;;;4.92;71.97;98988.72;1662705;84;25914;-65
2021/01/22 01:06:14;;;;;;;29.85;12.47;;;;;;;4.93;72.00;98981.15;1651084;85;26428;-65
2021/01/22 01:08:40;;;;;;;25.12;11.97;;;;;;;4.96;72.03;98984.98;1665765;84;25812;-64
2021/01/22 01:11:06;;;;;;;32.30;12.07;;;;;;;5.00;72.08;98991.88;1661900;84;27513;-61
2021/01/22 01:13:32;;;;;;;28.47;12.05;;;;;;;5.04;72.11;98970.88;1663055;84;25975;-61
2021/01/22 01:15:58;;;;;;;23.47;10.58;;;;;;;5.08;72.14;98967.15;1668925;84;26488;-61
2021/01/22 01:18:24;;;;;;;26.27;10.60;;;;;;;5.10;72.18;98944.04;1662864;84;26233;-61
2021/01/22 01:20:50;;;;;;;30.80;11.97;;;;;;;5.10;72.16;98954.19;1658233;84;25757;-61
2021/01/22 01:23:16;;;;;;;29.07;11.65;;;;;;;5.12;72.21;98955.45;1666710;83;27493;-61
2021/01/22 01:25:42;;;;;;;28.92;11.40;;;;;;;5.13;72.19;98947.41;1690863;83;26482;-61
2021/01/22 01:28:08;;;;;;;28.38;11.25;;;;;;;5.15;72.21;98948.66;1688454;83;26858;-61
2021/01/22 01:30:35;;;;;;;32.53;12.28;;;;;;;5.14;72.26;98930.53;1692992;83;25855;-61
2021/01/22 01:33:03;;;;;;;28.38;10.82;;;;;;;5.16;72.30;98927.81;1681590;83;25907;-62
2021/01/22 01:35:30;;;;;;;26.35;11.03;;;;;;;5.16;72.30;98922.03;1686538;83;28402;-61
2021/01/22 01:37:56;;;;;;;23.98;10.68;;;;;;;5.06;72.31;98905.28;1685089;83;25822;-61
2021/01/22 01:40:23;;;;;;;24.23;10.38;;;;;;;5.15;72.36;98916.32;1687509;83;25815;-61
2021/01/22 01:42:49;;;;;;;26.10;11.85;;;;;;;5.15;72.38;98924.29;1687990;83;26409;-61
2021/01/22 01:45:17;;;;;;;27.27;9.60;;;;;;;5.14;72.35;98907.10;1687364;83;25912;-61
2021/01/22 01:47:44;;;;;;;23.10;11.03;;;;;;;5.13;72.44;98901.39;1626001;86;27656;-61
2021/01/22 01:50:12;;;;;;;26.12;11.48;;;;;;;5.13;72.46;98892.10;1679974;83;26026;-61
2021/01/22 01:52:39;;;;;;;28.73;10.98;;;;;;;5.12;72.50;98889.05;1684938;83;25872;-61
2021/01/22 01:55:08;;;;;;;23.95;10.68;;;;;;;5.14;72.50;98876.56;1684608;83;26001;-61
2021/01/22 01:57:34;;;;;;;22.65;10.32;;;;;;;5.14;72.53;98887.19;1688482;83;26342;-61
2021/01/22 02:00:04;;;;;;;31.33;10.30;;;;;;;5.15;72.53;98883.13;1689647;83;27497;-61
2021/01/22 02:02:30;;;;;;;27.87;11.10;;;;;;;5.14;72.52;98884.53;1663451;84;25909;-61
2021/01/22 02:04:57;;;;;;;27.17;10.58;;;;;;;5.15;72.47;98876.95;1662701;84;25890;-61
2021/01/22 02:07:24;;;;;;;27.75;11.00;;;;;;;5.19;72.57;98902.42;1665792;84;27114;-61
2021/01/22 02:09:50;;;;;;;20.20;9.15;;;;;;;5.21;72.59;98898.72;1664808;84;25899;-61
2021/01/22 02:12:19;;;;;;;21.25;9.43;;;;;;;5.25;72.61;98902.56;1661748;84;28030;-61
2021/01/22 02:14:47;;;;;;;20.48;9.25;;;;;;;5.26;72.53;98901.16;1664374;84;25803;-61
2021/01/22 02:17:14;;;;;;;20.62;8.93;;;;;;;5.28;72.51;98903.73;1662170;84;25872;-61
2021/01/22 02:20:19;;;;;;;18.82;8.08;;;;;;;5.30;72.47;98901.39;1686778;83;25998;-61
2021/01/22 02:22:46;;;;;;;21.80;9.75;;;;;;;5.31;72.48;98895.61;1690163;83;25873;-61
2021/01/22 02:25:14;;;;;;;17.77;8.75;;;;;;;5.36;72.43;98890.93;1666314;83;28258;-61
2021/01/22 02:27:41;;;;;;;24.07;9.28;;;;;;;5.39;72.31;98892.10;1660999;84;25800;-61
2021/01/22 02:30:09;;;;;;;20.85;8.73;;;;;;;5.39;72.29;98877.49;1655352;84;25937;-61
2021/01/22 02:32:36;;;;;;;22.07;9.10;;;;;;;5.39;72.21;98874.37;1658391;84;26811;-61
2021/01/22 02:35:07;;;;;;;21.77;9.40;;;;;;;5.37;72.14;98871.40;1654451;84;25745;-61
2021/01/22 02:37:37;;;;;;;22.22;9.33;;;;;;;5.36;72.17;98877.18;1655287;84;27711;-61
2021/01/22 02:40:09;;;;;;;22.58;8.73;;;;;;;5.37;72.12;98883.35;1653484;84;25901;-62
2021/01/22 02:42:41;;;;;;;21.87;8.83;;;;;;;5.38;72.13;98858.50;1652744;84;25800;-66
2021/01/22 02:45:13;;;;;;;19.82;7.45;;;;;;;5.37;72.04;98856.31;1652901;84;25782;-65
2021/01/22 02:47:47;;;;;;;21.12;7.87;;;;;;;5.34;71.99;98851.63;1661545;83;26167;-65
2021/01/22 02:50:32;;;;;;;17.67;7.72;;;;;;;5.34;71.99;98853.81;1654695;84;28493;-65
2021/01/22 02:53:01;;;;;;;18.02;7.72;;;;;;;5.34;71.94;98859.59;1653377;84;26238;-65
2021/01/22 02:55:28;;;;;;;24.37;8.33;;;;;;;5.33;71.88;98864.05;1653909;84;25849;-65
2021/01/22 02:58:26;;;;;;;18.95;8.18;;;;;;;5.33;71.82;98857.41;1656498;84;26450;-65
2021/01/22 03:00:57;;;;;;;18.77;8.70;;;;;;;5.33;71.80;98848.11;1634346;85;25807;-65
2021/01/22 03:03:55;;;;;;;18.13;8.57;;;;;;;5.34;71.73;98842.33;1661496;84;28699;-65
2021/01/22 03:06:28;;;;;;;18.90;7.85;;;;;;;5.32;71.73;98848.19;1661684;84;25770;-65
2021/01/22 03:08:58;;;;;;;21.10;8.58;;;;;;;5.31;71.74;98834.05;1660913;84;25962;-65
2021/01/22 03:11:24;;;;;;;16.93;7.50;;;;;;;5.31;71.76;98830.06;1652752;84;26899;-65
2021/01/22 03:13:54;;;;;;;17.57;8.33;;;;;;;5.30;71.74;98816.86;1657299;84;25795;-65
2021/01/22 03:16:20;;;;;;;19.17;7.60;;;;;;;5.27;71.72;98812.56;1654529;84;27685;-65
2021/01/22 03:19:06;;;;;;;15.85;7.50;;;;;;;5.27;71.75;98815.22;1657852;84;26021;-65
2021/01/22 03:21:32;;;;;;;16.62;6.78;;;;;;;5.27;71.74;98810.38;1684961;82;25904;-65
2021/01/22 03:23:59;;;;;;;18.20;7.17;;;;;;;5.29;71.71;98808.03;1660365;83;26784;-65
2021/01/22 03:26:25;;;;;;;17.10;7.45;;;;;;;5.29;71.70;98804.05;1660626;83;25881;-66
2021/01/22 03:28:51;;;;;;;16.90;7.42;;;;;;;5.29;71.72;98798.73;1658027;83;27909;-66
2021/01/22 03:31:18;;;;;;;16.85;8.00;;;;;;;5.30;71.71;98791.16;1662984;83;25506;-65
2021/01/22 03:33:47;;;;;;;17.45;6.90;;;;;;;5.31;71.69;98792.88;1655850;83;25913;-65
2021/01/22 03:36:15;;;;;;;14.95;7.20;;;;;;;5.33;71.71;98786.16;1659392;83;26216;-65
2021/01/22 03:38:41;;;;;;;17.23;7.45;;;;;;;5.35;71.68;98778.96;1658530;83;25910;-65
2021/01/22 03:41:08;;;;;;;20.80;7.08;;;;;;;5.40;71.58;98772.94;1661261;83;28405;-65
2021/01/22 03:43:34;;;;;;;14.25;7.30;;;;;;;5.42;71.58;98772.39;1661280;83;26191;-65
2021/01/22 03:46:00;;;;;;;12.93;5.53;;;;;;;5.45;71.45;98767.78;1658362;83;25907;-65
2021/01/22 03:48:26;;;;;;;18.05;6.92;;;;;;;5.48;71.23;98766.28;1663949;83;26094;-65
2021/01/22 03:50:52;;;;;;;12.45;6.12;;;;;;;5.50;71.24;98762.22;1659250;83;25789;-65
2021/01/22 03:53:18;;;;;;;14.03;6.78;;;;;;;5.52;71.21;98769.17;1663199;83;27493;-65
2021/01/22 03:55:44;;;;;;;17.80;6.85;;;;;;;5.55;71.13;98767.68;1654934;83;26449;-65
2021/01/22 03:58:11;;;;;;;21.00;8.50;;;;;;;5.60;71.15;98770.56;1657794;83;25888;-66
2021/01/22 04:00:37;;;;;;;21.10;7.45;;;;;;;5.63;71.10;98771.27;1655980;83;25830;-65
2021/01/22 04:03:04;;;;;;;17.15;7.05;;;;;;;5.65;71.12;98769.38;1661142;83;25775;-65
2021/01/22 04:05:30;;;;;;;19.23;8.53;;;;;;;5.66;71.08;98760.94;1659669;83;27470;-65
2021/01/22 04:07:56;;;;;;;16.52;6.60;;;;;;;5.67;70.98;98756.01;1659371;83;26438;-65
2021/01/22 04:10:22;;;;;;;17.45;6.78;;;;;;;5.65;70.99;98753.91;1658615;83;25772;-65
2021/01/22 04:12:48;;;;;;;16.10;7.15;;;;;;;5.62;70.93;98740.31;1661483;83;26447;-65
2021/01/22 04:15:15;;;;;;;15.00;6.65;;;;;;;5.61;70.95;98741.25;1667248;83;25871;-65
2021/01/22 04:17:41;;;;;;;12.58;6.35;;;;;;;5.58;70.96;98737.42;1659794;83;27515;-65
2021/01/22 04:20:08;;;;;;;12.65;6.25;;;;;;;5.57;70.95;98733.52;1653950;83;25813;-65
2021/01/22 04:22:34;;;;;;;15.68;6.95;;;;;;;5.54;70.92;98723.45;1652465;83;26480;-65
2021/01/22 04:25:00;;;;;;;15.93;6.45;;;;;;;5.50;70.35;98722.36;1663198;83;25826;-65
2021/01/22 04:27:26;;;;;;;15.43;6.50;;;;;;;5.47;70.78;98735.81;1658811;83;25808;-66
2021/01/22 04:29:52;;;;;;;15.70;5.75;;;;;;;5.43;70.79;98727.61;1658487;83;27471;-65
2021/01/22 04:32:18;;;;;;;12.25;5.65;;;;;;;5.42;70.77;98731.21;1663099;83;26493;-66
2021/01/22 04:34:44;;;;;;;12.88;5.70;;;;;;;5.41;70.80;98738.79;1660040;83;25887;-65
2021/01/22 04:37:10;;;;;;;10.93;4.80;;;;;;;5.40;70.83;98739.73;1662242;83;26577;-66
2021/01/22 04:39:36;;;;;;;13.95;6.00;;;;;;;5.39;70.77;98749.50;1654166;83;25738;-66
2021/01/22 04:42:03;;;;;;;13.10;6.53;;;;;;;5.38;70.83;98742.47;1659162;83;27933;-65
2021/01/22 04:44:30;;;;;;;12.90;5.67;;;;;;;5.38;70.83;98736.30;1662489;83;25889;-65
2021/01/22 04:46:57;;;;;;;15.32;6.25;;;;;;;5.38;70.86;98736.30;1662068;83;25831;-66
2021/01/22 04:49:25;;;;;;;12.65;6.17;;;;;;;5.38;70.89;98730.52;1663425;83;26181;-66
2021/01/22 04:51:55;;;;;;;14.03;5.97;;;;;;;5.39;70.78;98722.94;1653923;83;25866;-64
2021/01/22 04:54:37;;;;;;;14.30;6.12;;;;;;;5.40;70.83;98706.52;1660169;83;28368;-66
2021/01/22 04:57:07;;;;;;;15.78;6.28;;;;;;;5.38;70.83;98695.98;1627495;85;25817;-65
2021/01/22 04:59:52;;;;;;;14.15;5.90;;;;;;;5.39;70.84;98688.39;1659190;83;25830;-64
2021/01/22 05:02:21;;;;;;;13.10;5.65;;;;;;;5.41;70.84;98679.88;1656691;83;26523;-65
2021/01/22 05:04:49;;;;;;;11.33;5.17;;;;;;;5.39;70.80;98668.47;1662352;83;25959;-66
2021/01/22 05:07:15;;;;;;;13.00;5.33;;;;;;;5.38;70.74;98661.91;1661836;83;27843;-65
2021/01/22 05:09:42;;;;;;;10.53;5.42;;;;;;;5.36;70.79;98651.84;1659114;83;26214;-63
2021/01/22 05:12:08;;;;;;;13.78;5.37;;;;;;;5.35;70.78;98639.02;1658841;83;25907;-64
2021/01/22 05:14:35;;;;;;;14.23;6.10;;;;;;;5.36;70.81;98635.90;1659932;83;26131;-63
2021/01/22 05:17:10;;;;;;;13.88;5.60;;;;;;;5.37;70.83;98628.31;1661690;83;25764;-64
2021/01/22 05:19:41;;;;;;;15.63;5.87;;;;;;;5.37;70.74;98629.17;1660142;83;27569;-64
2021/01/22 05:22:11;;;;;;;17.77;5.90;;;;;;;5.37;70.79;98626.52;1656393;83;26397;-64
2021/01/22 05:24:37;;;;;;;14.53;6.37;;;;;;;5.37;70.82;98629.64;1662768;83;25859;-64
2021/01/22 05:27:12;;;;;;;15.75;6.75;;;;;;;5.38;70.85;98617.61;1656334;83;26277;-64
2021/01/22 05:29:43;;;;;;;19.02;6.35;;;;;;;5.39;70.88;98626.44;1659117;83;26512;-63
2021/01/22 05:32:30;;;;;;;17.85;7.22;;;;;;;5.37;70.92;98631.83;1655031;83;28427;-63
2021/01/22 05:34:57;;;;;;;13.93;6.33;;;;;;;5.37;70.91;98626.52;1650855;83;26011;-63
2021/01/22 05:37:27;;;;;;;13.68;5.95;;;;;;;5.35;70.97;98629.73;1662805;83;25859;-64
2021/01/22 05:40:14;;;;;;;16.80;5.45;;;;;;;5.35;71.00;98624.41;1659830;83;26506;-63
2021/01/22 05:42:57;;;;;;;13.85;5.60;;;;;;;5.35;70.99;98630.20;1654074;83;25885;-63
2021/01/22 05:45:47;;;;;;;12.75;6.25;;;;;;;5.32;71.02;98621.06;1663796;83;27632;-64
2021/01/22 05:48:22;;;;;;;13.15;6.37;;;;;;;5.31;71.07;98612.24;1659470;83;26642;-65
2021/01/22 05:50:57;;;;;;;12.78;6.30;;;;;;;5.30;71.00;98614.98;1660830;83;25927;-65
2021/01/22 05:53:25;;;;;;;13.70;5.60;;;;;;;5.28;71.15;98621.70;1652789;83;26010;-64
2021/01/22 05:56:08;;;;;;;13.30;6.83;;;;;;;5.27;71.18;98626.63;1652956;83;25848;-67
2021/01/22 05:58:36;;;;;;;14.63;6.67;;;;;;;5.25;71.23;98637.80;1656798;83;28225;-65
2021/01/22 06:01:12;;;;;;;15.00;7.12;;;;;;;5.22;71.33;98624.69;1659027;83;25843;-64
2021/01/22 06:03:41;;;;;;;12.10;5.75;;;;;;;5.20;71.33;98612.00;1655628;83;25756;-66
2021/01/22 06:06:09;;;;;;;15.90;6.30;;;;;;;5.20;71.37;98615.48;1664631;83;25872;-64
2021/01/22 06:08:54;;;;;;;17.65;6.85;;;;;;;5.19;71.44;98615.59;1662468;83;26262;-64
2021/01/22 06:11:23;;;;;;;18.23;6.03;;;;;;;5.18;71.46;98620.52;1657867;83;27696;-64
2021/01/22 06:13:52;;;;;;;12.63;5.80;;;;;;;5.17;71.54;98628.09;1660015;83;25798;-64
2021/01/22 06:16:21;;;;;;;19.80;7.92;;;;;;;5.18;71.61;98629.34;1655156;83;25834;-64
2021/01/22 06:19:00;;;;;;;18.48;6.78;;;;;;;5.20;71.68;98638.55;1615060;87;26627;-64
2021/01/22 06:21:30;;;;;;;14.87;6.53;;;;;;;5.21;71.70;98641.09;1627263;85;26035;-64
2021/01/22 06:24:01;;;;;;;18.40;7.80;;;;;;;5.21;71.70;98638.91;1636600;86;27872;-64
2021/01/22 06:26:31;;;;;;;23.40;9.30;;;;;;;5.22;71.79;98651.25;1636053;86;25848;-64
2021/01/22 06:29:03;;;;;;;16.82;8.18;;;;;;;5.22;71.84;98657.42;1640798;86;25864;-65
2021/01/22 06:31:30;;;;;;;20.20;9.85;;;;;;;5.23;71.86;98656.95;1636681;86;27085;-65
2021/01/22 06:33:58;;;;;;;25.50;11.25;;;;;;;5.22;71.92;98647.27;1643560;86;25748;-65
2021/01/22 06:36:25;;;;;;;14.47;7.67;;;;;;;5.24;71.97;98654.69;1639585;86;27475;-66
2021/01/22 06:38:52;;;;;;;16.93;7.67;;;;;;;5.25;72.00;98648.90;1642142;86;25965;-66
2021/01/22 06:41:25;;;;;;;21.52;7.47;;;;;;;5.25;72.04;98645.77;1647973;86;26577;-66
2021/01/22 06:43:54;;;;;;;21.97;9.90;;;;;;;5.23;72.06;98639.22;1639117;86;25943;-66
2021/01/22 06:46:24;;;;;;;23.02;9.28;;;;;;;5.23;72.10;98627.73;1642767;86;26066;-65
2021/01/22 06:49:01;;;;;;;16.10;7.17;;;;;;;5.24;72.15;98616.17;1635844;86;27531;-65
2021/01/22 06:51:33;;;;;;;17.37;8.00;;;;;;;5.26;72.19;98616.09;1645369;86;25917;-66
2021/01/22 06:54:11;;;;;;;20.60;8.68;;;;;;;5.28;72.27;98614.20;1639373;86;25857;-65
2021/01/22 06:56:57;;;;;;;18.73;8.10;;;;;;;5.29;72.30;98607.95;1635841;86;26011;-68
2021/01/22 06:59:37;;;;;;;18.05;8.20;;;;;;;5.30;72.33;98613.18;1642305;86;26067;-67
2021/01/22 07:02:10;;;;;;;20.35;8.33;;;;;;;5.32;72.38;98625.05;1641413;86;27768;-67
2021/01/22 07:04:40;;;;;;;24.07;9.63;;;;;;;5.32;72.44;98621.06;1633179;86;25815;-66
2021/01/22 07:07:08;;;;;;;18.42;8.00;;;;;;;5.35;72.47;98628.87;1636995;86;25856;-66
2021/01/22 07:09:49;;;;;;;22.30;8.38;;;;;;;5.36;72.50;98618.16;1638456;86;25854;-67
2021/01/22 07:12:39;;;;;;;25.43;9.80;;;;;;;5.34;72.50;98628.02;1636162;86;26431;-66
2021/01/22 07:15:26;;;;;;;23.73;8.63;;;;;;;5.34;72.56;98624.03;1631691;86;27793;-67
2021/01/22 07:18:01;;;;;;;19.15;8.53;;;;;;;5.32;72.59;98623.72;1643368;86;25799;-67
2021/01/22 07:20:29;;;;;;;22.93;8.28;;;;;;;5.30;72.63;98618.50;1640771;86;26183;-67
2021/01/22 07:23:00;;;;;;;16.35;7.15;;;;;;;5.31;72.69;98616.70;1616564;85;25746;-64
2021/01/22 07:25:42;;;;;;;13.08;6.83;;;;;;;5.29;72.68;98608.81;1622157;85;25827;-64
2021/01/22 07:28:19;;;;;;;19.32;9.00;;;;;;;5.27;72.72;98619.13;1621368;85;28193;-64
2021/01/22 07:30:45;;;;;;;23.20;9.35;;;;;;;5.24;72.79;98617.50;1616364;85;26450;-66
2021/01/22 07:33:36;;;;;;;20.48;11.15;;;;;;;5.22;72.78;98616.25;1618098;85;25868;-64
2021/01/22 07:36:08;;;;;;;21.50;11.00;;;;;;;5.19;72.85;98609.81;1618440;85;25965;-64
2021/01/22 07:38:38;;;;;;;21.55;10.75;;;;;;;5.19;72.92;98606.30;1627527;85;26253;-65
2021/01/22 07:41:05;;;;;;;25.27;10.98;;;;;;;5.18;72.93;98612.08;1622755;85;27486;-65
2021/01/22 07:43:31;;;;;;;22.27;11.20;;;;;;;5.18;72.96;98607.23;1618742;85;25877;-65
2021/01/22 07:46:09;;;;;;;24.10;10.40;;;;;;;5.20;73.04;98608.02;1621400;85;25844;-65
2021/01/22 07:48:36;;;;;;;19.25;9.75;;;;;;;5.20;73.05;98606.19;1619128;85;25940;-65
2021/01/22 07:51:32;;;;;;;20.52;8.65;;;;;;;5.21;73.07;98599.93;1615587;85;25844;-65
2021/01/22 07:54:01;;;;;;;29.42;9.48;;;;;;;5.25;73.12;98601.09;1617948;85;27723;-64
2021/01/22 07:56:39;;;;;;;21.55;7.42;;;;;;;5.27;73.16;98590.77;1618179;85;25930;-65
2021/01/22 07:59:07;;;;;;;16.23;7.03;;;;;;;5.30;73.23;98595.91;1619684;85;26253;-66
2021/01/22 08:01:36;;;;;;;24.95;9.23;;;;;;;5.33;73.21;98602.86;1615733;85;26514;-67
2021/01/22 08:04:03;;;;;;;17.98;8.65;;;;;;;5.35;73.20;98592.53;1617726;85;26017;-66
2021/01/22 08:06:47;;;;;;;20.77;8.43;;;;;;;5.37;73.26;98597.30;1616365;85;27735;-66
2021/01/22 08:09:14;;;;;;;18.77;7.35;;;;;;;5.41;73.27;98588.69;1619696;85;26434;-65
2021/01/22 08:11:41;;;;;;;17.02;7.45;;;;;;;5.43;73.26;98591.64;1617463;85;26648;-65
2021/01/22 08:14:08;;;;;;;16.35;7.45;;;;;;;5.44;73.26;98592.03;1623815;85;26137;-66
2021/01/22 08:16:37;;;;;;;13.55;7.58;;;;;;;5.45;73.26;98603.05;1615458;85;26107;-65
2021/01/22 08:19:06;;;;;;;17.23;8.03;;;;;;;5.47;73.27;98594.52;1620945;85;27478;-66
2021/01/22 08:21:38;;;;;;;18.85;8.58;;;;;;;5.49;73.29;98603.27;1623109;85;25853;-65
2021/01/22 08:24:11;;;;;;;20.40;10.08;;;;;;;5.52;73.31;98599.11;1638564;86;25876;-65
2021/01/22 08:26:37;;;;;;;22.60;10.15;;;;;;;5.55;73.32;98594.95;1642137;86;26026;-66
2021/01/22 08:29:05;;;;;;;23.77;9.05;;;;;;;5.62;73.36;98596.80;1641510;86;25755;-65
2021/01/22 08:31:32;;;;;;;29.27;14.15;;;;;;;5.66;73.38;98592.16;1644196;86;27477;-66
2021/01/22 08:34:00;;;;;;;32.17;12.85;;;;;;;5.70;73.33;98589.72;1641069;86;26267;-65
2021/01/22 08:36:28;;;;;;;23.65;11.38;;;;;;;5.72;73.36;98581.19;1638252;86;26193;-66
2021/01/22 08:38:57;;;;;;;20.90;9.43;;;;;;;5.75;73.27;98565.92;1643411;86;26678;-65
2021/01/22 08:41:25;;;;;;;16.05;8.65;;;;;;;5.80;73.38;98573.17;1641146;86;25557;-66
2021/01/22 08:43:54;;;;;;;28.23;9.45;;;;;;;5.86;73.38;98576.80;1638445;86;28779;-67
2021/01/22 08:46:23;;;;;;;22.75;9.30;;;;;;;5.94;73.36;98584.37;1649225;86;26016;-65
2021/01/22 08:48:50;;;;;;;20.27;8.13;;;;;;;5.99;73.36;98582.31;1645370;86;25971;-65
2021/01/22 08:51:28;;;;;;;25.90;10.03;;;;;;;6.06;73.37;98579.68;1639260;86;27133;-65
2021/01/22 08:53:56;;;;;;;31.37;12.55;;;;;;;6.13;73.29;98581.51;1640859;86;25808;-65
2021/01/22 08:56:23;;;;;;;22.82;10.15;;;;;;;6.19;73.24;98568.71;1651318;86;27466;-65
2021/01/22 08:59:13;;;;;;;21.97;10.60;;;;;;;6.29;73.21;98592.11;1646994;86;25885;-66
2021/01/22 09:01:58;;;;;;;29.20;13.58;;;;;;;6.39;73.19;98581.31;1638085;86;26403;-66
2021/01/22 09:04:35;;;;;;;33.28;14.55;;;;;;;6.43;73.11;98573.53;1639915;86;26838;-67
2021/01/22 09:07:06;;;;;;;29.40;12.37;;;;;;;6.49;72.83;98571.84;1647664;86;25798;-65
2021/01/22 09:09:49;;;;;;;31.60;15.00;;;;;;;6.56;73.02;98578.98;1637528;86;27665;-64
2021/01/22 09:12:26;;;;;;;37.30;16.42;;;;;;;6.62;72.93;98572.81;1644725;86;26703;-64
2021/01/22 09:15:04;;;;;;;39.50;17.27;;;;;;;6.71;72.86;98577.58;1640679;86;25790;-64
2021/01/22 09:17:42;;;;;;;37.42;15.93;;;;;;;6.80;72.85;98574.84;1645787;86;25833;-64
2021/01/22 09:20:24;;;;;;;27.75;13.10;;;;;;;6.92;72.90;98576.75;1639727;86;25872;-65
2021/01/22 09:22:54;;;;;;;25.77;10.93;;;;;;;7.07;72.77;98585.13;1640253;86;27482;-64
2021/01/22 09:25:24;;;;;;;19.85;8.93;;;;;;;7.19;72.31;98580.84;1635914;86;25897;-65
2021/01/22 09:27:52;;;;;;;28.23;9.93;;;;;;;7.31;72.39;98574.75;1642819;86;25957;-65
2021/01/22 09:30:22;;;;;;;25.52;8.75;;;;;;;7.41;72.11;98573.21;1641238;86;26151;-65
2021/01/22 09:32:54;;;;;;;16.55;8.10;;;;;;;7.48;71.99;98569.20;1619019;86;25904;-65
2021/01/22 09:35:24;;;;;;;26.42;9.18;;;;;;;7.56;71.80;98580.71;1642622;86;27541;-65
2021/01/22 09:37:51;;;;;;;21.90;8.70;;;;;;;7.65;71.71;98565.93;1636484;86;26460;-64
2021/01/22 09:40:20;;;;;;;19.45;9.13;;;;;;;7.74;71.67;98574.67;1643146;86;26162;-65
2021/01/22 09:42:47;;;;;;;19.90;9.35;;;;;;;7.82;71.49;98572.33;1637464;86;25835;-65
2021/01/22 09:45:15;;;;;;;15.23;7.72;;;;;;;7.91;71.17;98570.39;1640590;86;26047;-66
2021/01/22 09:47:41;;;;;;;19.62;8.90;;;;;;;7.99;70.96;98560.08;1638757;86;27701;-66
2021/01/22 09:50:11;;;;;;;17.95;8.28;;;;;;;8.08;70.98;98558.13;1640695;86;25985;-66
2021/01/22 09:52:38;;;;;;;24.65;9.63;;;;;;;8.17;70.79;98557.14;1636724;86;25793;-65
2021/01/22 09:55:17;;;;;;;18.23;7.95;;;;;;;8.30;70.63;98558.03;1641638;86;25895;-66
2021/01/22 09:57:44;;;;;;;19.87;6.53;;;;;;;8.42;70.63;98549.23;1645745;86;25903;-65
2021/01/22 10:00:14;;;;;;;17.27;6.55;;;;;;;8.56;69.93;98553.16;1640969;86;28282;-65
2021/01/22 10:02:41;;;;;;;28.07;11.70;;;;;;;8.63;69.40;98533.08;1644333;86;25847;-66
2021/01/22 10:05:11;;;;;;;18.67;8.08;;;;;;;8.79;69.22;98547.08;1641294;86;26269;-66
2021/01/22 10:07:37;;;;;;;19.62;7.08;;;;;;;8.88;69.02;98548.74;1640402;86;25879;-66
2021/01/22 10:10:06;;;;;;;15.85;6.03;;;;;;;8.97;68.29;98558.78;1641537;86;25903;-66
2021/01/22 10:12:32;;;;;;;11.57;5.37;;;;;;;9.07;67.99;98558.52;1639165;86;27464;-66
2021/01/22 10:14:58;;;;;;;15.35;6.40;;;;;;;9.15;68.01;98553.96;1640972;86;25817;-67
2021/01/22 10:17:24;;;;;;;15.80;6.70;;;;;;;9.20;68.15;98545.99;1642346;86;25925;-67
2021/01/22 10:19:50;;;;;;;21.93;7.20;;;;;;;9.25;67.91;98543.84;1638686;86;26944;-66
2021/01/22 10:22:16;;;;;;;23.35;8.88;;;;;;;9.32;67.84;98546.45;1644005;86;25787;-66
2021/01/22 10:24:42;;;;;;;24.95;8.63;;;;;;;9.40;66.45;98550.77;1642454;86;27521;-66
2021/01/22 10:27:09;;;;;;;21.10;8.35;;;;;;;9.46;67.52;98540.11;1638692;86;26464;-67
2021/01/22 10:29:35;;;;;;;22.42;7.78;;;;;;;9.52;66.69;98545.02;1638359;86;26429;-67
2021/01/22 10:32:02;;;;;;;18.17;7.83;;;;;;;9.60;66.78;98539.11;1643949;86;26214;-64
2021/01/22 10:34:28;;;;;;;18.15;7.05;;;;;;;9.66;66.97;98538.66;1643354;86;25834;-64
2021/01/22 10:36:54;;;;;;;22.37;8.65;;;;;;;9.70;67.01;98538.81;1636386;86;27747;-63
2021/01/22 10:39:20;;;;;;;20.45;7.10;;;;;;;9.74;66.98;98534.95;1645444;86;25774;-63
2021/01/22 10:41:46;;;;;;;15.55;6.28;;;;;;;9.79;66.89;98530.59;1637640;86;25769;-64
2021/01/22 10:44:12;;;;;;;16.93;5.60;;;;;;;9.87;66.82;98530.88;1642908;86;26593;-64
2021/01/22 10:46:38;;;;;;;14.45;6.03;;;;;;;9.93;66.29;98531.28;1642291;86;26604;-66
2021/01/22 10:49:04;;;;;;;17.92;7.45;;;;;;;10.00;66.21;98538.37;1646550;86;27820;-65
2021/01/22 10:51:30;;;;;;;14.03;5.92;;;;;;;10.05;66.14;98539.73;1644952;86;25909;-65
2021/01/22 10:53:56;;;;;;;14.58;7.85;;;;;;;10.11;66.15;98535.75;1641697;86;25889;-65
2021/01/22 10:56:25;;;;;;;14.23;6.42;;;;;;;10.16;64.49;98523.36;1635987;86;26144;-64
2021/01/22 10:58:50;;;;;;;16.25;6.42;;;;;;;10.25;65.70;98527.56;1641268;86;25942;-66
2021/01/22 11:01:17;;;;;;;14.45;6.55;;;;;;;10.31;65.58;98532.94;1641434;86;28596;-69
2021/01/22 11:03:43;;;;;;;19.80;6.67;;;;;;;10.37;65.61;98541.36;1641028;86;25869;-68
2021/01/22 11:06:09;;;;;;;17.55;6.53;;;;;;;10.46;64.06;98523.70;1640771;86;25769;-67
2021/01/22 11:08:35;;;;;;;12.20;5.85;;;;;;;10.54;65.15;98516.42;1641776;86;26701;-70
2021/01/22 11:11:02;;;;;;;15.18;5.67;;;;;;;10.60;65.25;98526.17;1646348;86;25829;-68
2021/01/22 11:13:29;;;;;;;18.52;7.33;;;;;;;10.65;64.71;98524.48;1639645;86;28075;-68
2021/01/22 11:15:55;;;;;;;15.58;6.60;;;;;;;10.67;65.08;98528.75;1639344;86;26490;-68
2021/01/22 11:18:21;;;;;;;21.62;6.10;;;;;;;10.69;65.07;98524.13;1638630;86;25767;-69
2021/01/22 11:20:47;;;;;;;18.98;7.37;;;;;;;10.71;65.12;98526.20;1638821;86;27621;-68
2021/01/22 11:23:13;;;;;;;18.85;7.00;;;;;;;10.74;64.05;98524.63;1623627;86;25852;-68
2021/01/22 11:25:39;;;;;;;15.55;7.05;;;;;;;10.78;64.48;98528.41;1616483;85;28323;-69
2021/01/22 11:28:06;;;;;;;18.00;7.28;;;;;;;10.80;64.55;98523.78;1615966;85;25976;-68
2021/01/22 11:30:32;;;;;;;17.82;7.55;;;;;;;10.82;64.01;98520.49;1623809;85;25954;-69
2021/01/22 11:32:58;;;;;;;15.55;7.15;;;;;;;10.83;64.33;98516.84;1613681;85;26886;-69
2021/01/22 11:35:25;;;;;;;19.75;6.58;;;;;;;10.86;64.33;98519.28;1653780;84;26376;-69
2021/01/22 11:37:52;;;;;;;17.07;6.40;;;;;;;10.86;63.63;98516.11;1650726;84;27501;-70
2021/01/22 11:40:18;;;;;;;16.48;6.90;;;;;;;10.87;64.35;98510.27;1654632;84;25892;-69
2021/01/22 11:42:47;;;;;;;17.23;7.87;;;;;;;10.86;63.87;98509.90;1655910;84;25933;-71